createdAt,value
2018-11-21T00:00:09.949Z,93.65
2018-11-21T00:02:38.729Z,89.00
2018-11-21T00:05:08.049Z,93.30
2018-11-21T00:07:36.958Z,117.37
2018-11-21T00:10:08.902Z,82.80
2018-11-21T00:12:38.134Z,73.45
2018-11-21T00:15:09.069Z,92.80
2018-11-21T00:17:37.489Z,93.43
2018-11-21T00:20:08.632Z,74.70
2018-11-21T00:22:37.421Z,75.37
2018-11-21T00:25:07.073Z,85.53
2018-11-21T00:27:36.569Z,114.57
2018-11-21T00:30:07.614Z,105.40
2018-11-21T00:32:36.102Z,160.50
2018-11-21T00:35:05.958Z,70.37
2018-11-21T00:37:34.456Z,94.80
2018-11-21T00:40:03.364Z,120.27
2018-11-21T00:42:32.419Z,147.00
2018-11-21T00:45:00.839Z,212.97
2018-11-21T00:47:29.264Z,107.47
2018-11-21T00:49:59.398Z,115.90
2018-11-21T00:52:27.834Z,150.37
2018-11-21T00:54:56.292Z,104.60
2018-11-21T00:57:24.775Z,106.87
2018-11-21T00:59:53.189Z,93.47
2018-11-21T01:02:24.914Z,93.87
2018-11-21T01:04:53.408Z,94.45
2018-11-21T01:07:22.140Z,90.67
2018-11-21T01:09:50.628Z,107.60
2018-11-21T01:12:20.152Z,119.07
2018-11-21T01:14:48.528Z,91.80
2018-11-21T01:17:17.331Z,75.97
2018-11-21T01:19:45.811Z,122.17
2018-11-21T01:22:15.450Z,121.13
2018-11-21T01:24:43.865Z,84.27
2018-11-21T01:27:12.355Z,132.97
2018-11-21T01:29:40.797Z,109.33
2018-11-21T01:32:09.207Z,75.77
2018-11-21T01:34:37.658Z,91.30
2018-11-21T01:37:06.088Z,80.63
2018-11-21T01:39:34.979Z,78.45
2018-11-21T01:42:04.202Z,107.67
2018-11-21T01:44:32.582Z,90.60
2018-11-21T01:47:01.132Z,73.07
2018-11-21T01:49:30.331Z,89.17
2018-11-21T01:51:58.766Z,86.17
2018-11-21T01:54:27.215Z,82.27
2018-11-21T01:56:55.703Z,84.87
2018-11-21T01:59:24.120Z,84.33
2018-11-21T02:01:52.603Z,88.73
2018-11-21T02:04:21.540Z,99.65
2018-11-21T02:06:50.012Z,123.93
2018-11-21T02:09:18.431Z,81.40
2018-11-21T02:11:47.457Z,87.97
2018-11-21T02:14:17.377Z,96.25
2018-11-21T02:16:45.799Z,86.20
2018-11-21T02:19:15.577Z,97.62
2018-11-21T02:21:44.728Z,92.40
2018-11-21T02:24:13.156Z,78.50
2018-11-21T02:26:41.613Z,85.03
2018-11-21T02:29:10.050Z,92.90
2018-11-21T02:31:38.480Z,107.53
2018-11-21T02:34:07.581Z,100.73
2018-11-21T02:36:36.542Z,90.47
2018-11-21T02:39:08.218Z,86.30
2018-11-21T02:41:39.455Z,97.37
2018-11-21T02:44:07.874Z,74.93
2018-11-21T02:46:36.319Z,90.25
2018-11-21T02:49:06.058Z,105.87
2018-11-21T02:51:34.521Z,107.65
2018-11-21T02:54:02.965Z,114.80
2018-11-21T02:57:09.044Z,81.72
2018-11-21T02:59:38.113Z,81.43
2018-11-21T03:02:07.190Z,123.87
2018-11-21T03:04:35.650Z,91.47
2018-11-21T03:07:04.463Z,90.27
2018-11-21T03:09:32.895Z,93.57
2018-11-21T03:12:01.883Z,126.02
2018-11-21T03:14:30.297Z,110.50
2018-11-21T03:16:59.059Z,80.23
2018-11-21T03:19:28.534Z,94.00
2018-11-21T03:21:56.970Z,113.60
2018-11-21T03:24:28.325Z,103.80
2018-11-21T03:26:56.786Z,92.13
2018-11-21T03:29:25.215Z,86.87
2018-11-21T03:31:54.110Z,89.20
2018-11-21T03:34:23.380Z,85.80
2018-11-21T03:36:53.185Z,82.07
2018-11-21T03:39:22.785Z,90.87
2018-11-21T03:41:51.743Z,138.07
2018-11-21T03:44:20.169Z,93.57
2018-11-21T03:46:49.876Z,140.47
2018-11-21T03:49:18.799Z,100.10
2018-11-21T03:51:47.212Z,100.20
2018-11-21T03:54:17.382Z,104.17
2018-11-21T03:56:45.830Z,94.37
2018-11-21T03:59:14.550Z,108.07
2018-11-21T04:01:43.056Z,104.27
2018-11-21T04:04:12.356Z,128.07
2018-11-21T04:06:40.808Z,102.83
2018-11-21T04:09:11.000Z,99.23
2018-11-21T04:11:39.701Z,99.93
2018-11-21T04:14:08.363Z,101.13
2018-11-21T04:16:36.788Z,93.87
2018-11-21T04:19:05.387Z,117.67
2018-11-21T04:21:34.383Z,104.85
2018-11-21T04:24:03.172Z,98.57
2018-11-21T04:26:31.993Z,98.73
2018-11-21T04:29:00.418Z,91.45
2018-11-21T04:31:28.861Z,88.63
2018-11-21T04:33:57.460Z,88.13
2018-11-21T04:36:26.277Z,90.20
2018-11-21T04:38:55.691Z,92.30
2018-11-21T04:41:25.566Z,101.60
2018-11-21T04:43:53.990Z,84.33
2018-11-21T04:46:22.444Z,100.17
2018-11-21T04:48:51.519Z,89.70
2018-11-21T04:51:20.333Z,86.30
2018-11-21T04:53:48.752Z,86.47
2018-11-21T04:56:18.084Z,91.32
2018-11-21T04:58:46.807Z,91.83
2018-11-21T05:01:16.572Z,84.20
2018-11-21T05:03:45.041Z,87.07
2018-11-21T05:06:14.817Z,79.57
2018-11-21T05:08:43.189Z,88.60
2018-11-21T05:11:13.806Z,87.97
2018-11-21T05:13:42.591Z,82.13
2018-11-21T05:16:11.011Z,84.80
2018-11-21T05:18:39.467Z,87.20
2018-11-21T05:21:07.942Z,82.87
2018-11-21T05:23:36.641Z,84.83
2018-11-21T05:26:05.733Z,95.23
2018-11-21T05:28:34.170Z,86.80
2018-11-21T05:31:02.734Z,91.03
2018-11-21T05:33:31.627Z,92.50
2018-11-21T05:36:00.048Z,86.27
2018-11-21T05:38:28.485Z,86.10
2018-11-21T05:40:57.338Z,94.70
2018-11-21T05:43:26.071Z,96.70
2018-11-21T05:45:54.837Z,91.83
2018-11-21T05:48:23.300Z,85.93
2018-11-21T05:50:52.006Z,98.50
2018-11-21T05:53:20.424Z,93.90
2018-11-21T05:55:49.240Z,91.17
2018-11-21T05:58:17.673Z,85.10
2018-11-21T06:00:49.081Z,87.57
2018-11-21T06:03:15.822Z,89.50
2018-11-21T06:05:44.979Z,81.05
2018-11-21T06:08:13.647Z,93.03
2018-11-21T06:10:45.239Z,88.00
2018-11-21T06:13:13.479Z,83.37
2018-11-21T06:15:41.905Z,81.97
2018-11-21T06:18:11.119Z,91.33
2018-11-21T06:20:39.585Z,91.70
2018-11-21T06:23:08.265Z,90.13
2018-11-21T06:25:36.717Z,84.50
2018-11-21T06:28:05.236Z,93.00
2018-11-21T06:30:33.662Z,83.58
2018-11-21T06:33:02.502Z,82.13
2018-11-21T06:35:31.989Z,86.33
2018-11-21T06:38:00.835Z,83.52
2018-11-21T06:40:30.276Z,84.52
2018-11-21T06:42:59.699Z,90.43
2018-11-21T06:45:29.500Z,76.55
2018-11-21T06:47:57.961Z,83.27
2018-11-21T06:50:26.380Z,70.27
2018-11-21T06:52:56.086Z,70.20
2018-11-21T06:55:24.533Z,73.13
2018-11-21T06:57:52.993Z,74.37
2018-11-21T07:00:21.478Z,70.37
2018-11-21T07:02:50.321Z,83.93
2018-11-21T07:05:21.320Z,78.57
2018-11-21T07:07:49.740Z,76.97
2018-11-21T07:10:18.610Z,76.27
2018-11-21T07:12:47.027Z,66.43
2018-11-21T07:15:15.563Z,69.70
2018-11-21T07:17:44.033Z,65.13
2018-11-21T07:20:13.542Z,70.22
2018-11-21T07:22:42.909Z,68.47
2018-11-21T07:25:19.526Z,65.65
2018-11-21T07:27:47.939Z,60.37
2018-11-21T07:30:17.892Z,59.02
2018-11-21T07:32:46.356Z,58.68
2018-11-21T07:35:18.143Z,71.20
2018-11-21T07:37:45.404Z,71.77
2018-11-21T07:40:15.426Z,61.88
2018-11-21T07:42:44.613Z,65.70
2018-11-21T07:45:16.385Z,67.40
2018-11-21T07:47:45.903Z,73.70
2018-11-21T07:50:17.093Z,74.20
2018-11-21T07:52:46.057Z,71.63
2018-11-21T07:55:15.666Z,66.67
2018-11-21T07:58:02.162Z,70.20
2018-11-21T08:01:02.166Z,76.67
2018-11-21T08:03:48.503Z,70.07
2018-11-21T08:06:45.098Z,77.27
2018-11-21T08:09:34.275Z,64.47
2018-11-21T08:12:25.267Z,71.10
2018-11-21T08:15:19.368Z,73.70
2018-11-21T08:18:14.352Z,73.93
2018-11-21T08:21:17.072Z,72.77
2018-11-21T08:24:03.512Z,67.20
2018-11-21T08:26:49.414Z,73.03
2018-11-21T08:29:18.013Z,72.40
2018-11-21T08:31:46.588Z,66.10
2018-11-21T08:34:15.457Z,73.33
2018-11-21T08:36:44.342Z,68.43
2018-11-21T08:39:15.414Z,80.93
2018-11-21T08:41:43.842Z,76.77
2018-11-21T08:44:12.327Z,68.30
2018-11-21T08:46:41.090Z,82.60
2018-11-21T08:49:09.902Z,74.57
2018-11-21T08:51:38.339Z,73.10
2018-11-21T08:54:06.834Z,59.83
2018-11-21T08:56:35.272Z,70.60
2018-11-21T08:59:03.729Z,65.97
2018-11-21T09:01:32.623Z,69.63
2018-11-21T09:04:01.055Z,69.87
2018-11-21T09:06:30.014Z,65.43
2018-11-21T09:08:58.501Z,66.13
2018-11-21T09:11:26.937Z,63.07
2018-11-21T09:13:55.708Z,67.90
2018-11-21T09:16:25.225Z,64.47
2018-11-21T09:18:54.174Z,73.17
2018-11-21T09:21:22.668Z,65.17
2018-11-21T09:23:51.801Z,61.33
2018-11-21T09:26:20.580Z,58.17
2018-11-21T09:28:49.021Z,58.00
2018-11-21T09:31:17.484Z,57.83
2018-11-21T09:33:47.583Z,61.90
2018-11-21T09:36:17.822Z,71.28
2018-11-21T09:38:46.727Z,56.83
2018-11-21T09:41:16.412Z,53.73
2018-11-21T09:43:44.891Z,57.70
2018-11-21T09:46:17.221Z,57.43
2018-11-21T09:48:42.873Z,61.13
2018-11-21T09:51:11.376Z,62.70
2018-11-21T09:53:39.843Z,62.77
2018-11-21T09:56:08.278Z,54.73
2018-11-21T09:58:37.089Z,55.47
2018-11-21T10:01:44.878Z,56.75
2018-11-21T10:04:14.205Z,53.10
2018-11-21T10:06:44.056Z,53.70
2018-11-21T10:09:16.476Z,65.43
2018-11-21T10:11:44.948Z,60.33
2018-11-21T10:14:14.705Z,62.58
2018-11-21T10:16:44.292Z,68.37
2018-11-21T10:19:12.746Z,62.63
2018-11-21T10:21:41.178Z,69.57
2018-11-21T10:24:10.199Z,63.53
2018-11-21T10:26:38.988Z,59.47
2018-11-21T10:29:08.217Z,55.08
2018-11-21T10:31:36.981Z,68.53
2018-11-21T10:34:05.551Z,65.00
2018-11-21T10:36:34.094Z,62.55
2018-11-21T10:39:02.928Z,62.63
2018-11-21T10:41:32.357Z,75.28
2018-11-21T10:44:00.795Z,63.73
2018-11-21T10:46:29.896Z,58.80
2018-11-21T10:48:58.367Z,60.40
2018-11-21T10:51:27.248Z,64.27
2018-11-21T10:53:55.764Z,60.80
2018-11-21T10:56:24.205Z,61.28
2018-11-21T10:58:52.749Z,66.43
2018-11-21T11:01:43.502Z,64.22
2018-11-21T11:04:16.974Z,64.70
2018-11-21T11:07:03.316Z,61.35
2018-11-21T11:09:40.942Z,64.43
2018-11-21T11:12:28.582Z,63.00
2018-11-21T11:15:16.253Z,61.00
2018-11-21T11:18:04.225Z,63.83
2018-11-21T11:20:57.772Z,61.55
2018-11-21T11:23:47.883Z,59.63
2018-11-21T11:26:33.290Z,62.13
2018-11-21T11:29:24.174Z,56.50
2018-11-21T11:32:23.835Z,66.70
2018-11-21T11:35:12.397Z,63.40
2018-11-21T11:38:00.022Z,62.07
2018-11-21T11:40:46.615Z,64.03
2018-11-21T11:43:33.446Z,63.45
2018-11-21T11:46:23.673Z,63.10
2018-11-21T11:49:23.367Z,58.37
2018-11-21T11:52:27.028Z,67.97
2018-11-21T11:55:17.530Z,65.25
2018-11-21T11:58:05.164Z,59.00
2018-11-21T12:00:51.684Z,65.80
2018-11-21T12:03:48.201Z,59.63
2018-11-21T12:06:35.705Z,61.73
2018-11-21T12:09:15.927Z,68.10
2018-11-21T12:12:04.987Z,58.92
2018-11-21T12:14:41.196Z,62.90
2018-11-21T12:17:44.454Z,65.70
2018-11-21T12:20:39.615Z,59.57
2018-11-21T12:23:26.899Z,62.17
2018-11-21T12:26:13.126Z,69.77
2018-11-21T12:29:00.092Z,71.33
2018-11-21T12:31:46.600Z,62.03
2018-11-21T12:34:33.646Z,72.32
2018-11-21T12:37:30.906Z,63.77
2018-11-21T12:40:36.789Z,65.60
2018-11-21T12:43:21.244Z,60.93
2018-11-21T12:46:17.892Z,56.83
2018-11-21T12:49:04.319Z,58.10
2018-11-21T12:51:46.854Z,57.10
2018-11-21T12:54:46.748Z,56.02
2018-11-21T12:57:33.667Z,54.25
2018-11-21T13:00:24.322Z,55.80
2018-11-21T13:03:01.042Z,62.67
2018-11-21T13:05:47.363Z,56.88
2018-11-21T13:08:31.711Z,54.15
2018-11-21T13:11:17.905Z,56.17
2018-11-21T13:14:04.087Z,52.00
2018-11-21T13:16:54.709Z,53.78
2018-11-21T13:19:43.325Z,52.20
2018-11-21T13:22:34.477Z,56.90
2018-11-21T13:25:21.966Z,61.53
2018-11-21T13:28:04.498Z,57.90
2018-11-21T13:31:10.739Z,53.80
2018-11-21T13:34:17.034Z,51.37
2018-11-21T13:37:23.362Z,53.47
2018-11-21T13:40:28.154Z,51.87
2018-11-21T13:43:14.571Z,47.87
2018-11-21T13:46:05.007Z,56.70
2018-11-21T13:49:07.875Z,46.95
2018-11-21T13:52:04.795Z,49.15
2018-11-21T13:54:50.762Z,47.83
2018-11-21T13:57:20.413Z,48.33
2018-11-21T13:59:49.296Z,48.50
2018-11-21T14:02:17.736Z,53.47
2018-11-21T14:04:46.289Z,52.33
2018-11-21T14:07:17.507Z,52.65
2018-11-21T14:09:45.968Z,65.97
2018-11-21T14:12:15.510Z,51.80
2018-11-21T14:14:44.523Z,44.87
2018-11-21T14:17:12.992Z,46.87
2018-11-21T14:19:42.133Z,40.38
2018-11-21T14:22:21.525Z,46.00
2018-11-21T14:24:49.989Z,47.57
2018-11-21T14:27:18.590Z,48.57
2018-11-21T14:29:47.121Z,46.10
2018-11-21T14:32:18.277Z,43.10
2018-11-21T14:34:46.816Z,45.23
2018-11-21T14:37:15.626Z,46.30
2018-11-21T14:39:44.522Z,49.80
2018-11-21T14:42:12.982Z,49.07
2018-11-21T14:44:42.358Z,51.90
2018-11-21T14:47:13.613Z,45.27
2018-11-21T14:49:42.418Z,48.03
2018-11-21T14:52:11.169Z,50.47
2018-11-21T14:54:39.625Z,43.67
2018-11-21T14:57:09.026Z,43.30
2018-11-21T14:59:37.483Z,45.10
2018-11-21T15:02:06.263Z,45.90
2018-11-21T15:04:35.179Z,46.97
2018-11-21T15:07:03.917Z,40.17
2018-11-21T15:09:32.434Z,50.30
2018-11-21T15:12:00.897Z,42.73
2018-11-21T15:14:29.363Z,47.25
2018-11-21T15:16:57.800Z,50.80
2018-11-21T15:19:26.353Z,45.27
2018-11-21T15:21:56.114Z,44.30
2018-11-21T15:24:24.531Z,49.47
2018-11-21T15:26:52.961Z,47.63
2018-11-21T15:29:21.510Z,48.42
2018-11-21T15:31:50.038Z,54.23
2018-11-21T15:34:19.394Z,45.55
2018-11-21T15:36:49.876Z,44.43
2018-11-21T15:39:18.350Z,41.73
2018-11-21T15:41:46.833Z,45.17
2018-11-21T15:44:16.455Z,59.75
2018-11-21T15:46:45.823Z,68.53
2018-11-21T15:49:18.003Z,81.10
2018-11-21T15:51:46.761Z,54.83
2018-11-21T15:54:16.216Z,47.95
2018-11-21T15:56:44.694Z,79.47
2018-11-21T15:59:13.192Z,46.77
2018-11-21T16:01:41.618Z,41.23
2018-11-21T16:04:10.297Z,51.90
2018-11-21T16:06:38.765Z,40.00
2018-11-21T16:09:09.704Z,38.00
2018-11-21T16:11:38.316Z,38.70
2018-11-21T16:14:07.679Z,42.23
2018-11-21T16:16:36.546Z,40.67
2018-11-21T16:19:05.477Z,44.80
2018-11-21T16:21:33.941Z,43.70
2018-11-21T16:24:02.413Z,41.80
2018-11-21T16:26:30.838Z,41.43
2018-11-21T16:28:59.372Z,37.50
2018-11-21T16:31:28.113Z,36.15
2018-11-21T16:33:57.637Z,35.17
2018-11-21T16:36:27.172Z,49.00
2018-11-21T16:38:54.958Z,37.37
2018-11-21T16:41:23.542Z,38.60
2018-11-21T16:43:52.029Z,42.20
2018-11-21T16:46:20.500Z,36.73
2018-11-21T16:48:48.972Z,39.50
2018-11-21T16:51:17.549Z,46.58
2018-11-21T16:53:46.013Z,45.80
2018-11-21T16:56:15.559Z,45.80
2018-11-21T16:58:44.229Z,45.70
2018-11-21T17:01:12.666Z,43.47
2018-11-21T17:03:41.094Z,50.30
2018-11-21T17:06:09.609Z,49.63
2018-11-21T17:08:38.662Z,48.77
2018-11-21T17:11:08.081Z,45.20
2018-11-21T17:13:36.890Z,48.90
2018-11-21T17:16:05.550Z,47.40
2018-11-21T17:18:33.982Z,47.48
2018-11-21T17:21:03.334Z,42.43
2018-11-21T17:23:31.822Z,45.97
2018-11-21T17:26:00.243Z,54.03
2018-11-21T17:28:28.846Z,49.03
2018-11-21T17:30:57.270Z,46.10
2018-11-21T17:33:28.617Z,44.70
2018-11-21T17:35:57.089Z,48.27
2018-11-21T17:38:26.360Z,58.30
2018-11-21T17:40:56.900Z,60.27
2018-11-21T17:43:26.311Z,55.45
2018-11-21T17:45:54.803Z,68.17
2018-11-21T17:48:23.548Z,56.37
2018-11-21T17:50:52.027Z,62.07
2018-11-21T17:53:20.464Z,63.48
2018-11-21T17:55:49.025Z,63.80
2018-11-21T17:58:17.480Z,61.67
2018-11-21T18:00:48.928Z,60.87
2018-11-21T18:03:17.434Z,64.50
2018-11-21T18:05:46.319Z,64.33
2018-11-21T18:08:16.425Z,58.33
2018-11-21T18:10:45.107Z,65.10
2018-11-21T18:13:15.155Z,71.33
2018-11-21T18:15:44.776Z,73.50
2018-11-21T18:18:13.254Z,67.20
2018-11-21T18:20:41.700Z,76.90
2018-11-21T18:23:10.164Z,64.43
2018-11-21T18:25:40.743Z,65.77
2018-11-21T18:28:12.421Z,69.13
2018-11-21T18:30:43.909Z,53.90
2018-11-21T18:33:12.539Z,58.60
2018-11-21T18:35:41.169Z,60.10
2018-11-21T18:38:17.093Z,57.10
2018-11-21T18:40:45.714Z,68.63
2018-11-21T18:43:16.105Z,77.85
2018-11-21T18:45:45.726Z,68.57
2018-11-21T18:48:14.876Z,67.78
2018-11-21T18:50:43.718Z,69.53
2018-11-21T18:53:12.865Z,65.20
2018-11-21T18:56:03.421Z,62.43
2018-11-21T18:58:45.976Z,66.28
2018-11-21T19:01:15.451Z,64.07
2018-11-21T19:03:44.546Z,76.87
2018-11-21T19:06:13.014Z,69.40
2018-11-21T19:08:41.446Z,65.83
2018-11-21T19:11:10.108Z,66.40
2018-11-21T19:13:38.597Z,76.57
2018-11-21T19:16:07.235Z,74.47
2018-11-21T19:18:35.721Z,73.63
2018-11-21T19:21:04.461Z,66.67
2018-11-21T19:23:32.966Z,78.93
2018-11-21T19:26:01.560Z,79.15
2018-11-21T19:28:29.989Z,77.27
2018-11-21T19:30:58.404Z,75.00
2018-11-21T19:33:27.277Z,74.20
2018-11-21T19:35:55.733Z,74.30
2018-11-21T19:38:24.143Z,68.03
2018-11-21T19:40:52.579Z,70.60
2018-11-21T19:43:21.081Z,77.65
2018-11-21T19:45:49.498Z,75.57
2018-11-21T19:48:19.305Z,64.77
2018-11-21T19:50:47.711Z,72.53
2018-11-21T19:53:17.406Z,71.92
2018-11-21T19:55:47.334Z,62.77
2018-11-21T19:58:15.581Z,69.32
2018-11-21T20:00:44.021Z,69.13
2018-11-21T20:03:12.881Z,68.10
2018-11-21T20:05:41.358Z,63.02
2018-11-21T20:08:10.306Z,62.50
2018-11-21T20:10:39.149Z,63.30
2018-11-21T20:13:07.623Z,64.20
2018-11-21T20:15:36.075Z,60.10
2018-11-21T20:18:04.987Z,61.33
2018-11-21T20:20:33.743Z,62.70
2018-11-21T20:23:06.452Z,55.77
2018-11-21T20:25:31.011Z,57.88
2018-11-21T20:28:00.170Z,50.03
2018-11-21T20:30:30.484Z,53.60
2018-11-21T20:32:58.913Z,55.57
2018-11-21T20:35:27.827Z,60.28
2018-11-21T20:37:56.277Z,50.03
2018-11-21T20:40:26.513Z,58.47
2018-11-21T20:42:54.881Z,52.30
2018-11-21T20:45:24.821Z,50.65
2018-11-21T20:47:54.597Z,52.73
2018-11-21T20:50:23.823Z,50.30
2018-11-21T20:52:52.239Z,54.00
2018-11-21T20:55:22.632Z,48.90
2018-11-21T20:57:53.655Z,50.47
2018-11-21T21:00:23.570Z,49.87
2018-11-21T21:02:55.122Z,52.33
2018-11-21T21:05:24.956Z,56.47
2018-11-21T21:07:53.406Z,61.15
2018-11-21T21:10:23.458Z,61.33
2018-11-21T21:12:52.408Z,51.93
2018-11-21T21:15:20.896Z,48.80
2018-11-21T21:17:50.114Z,59.30
2018-11-21T21:20:20.057Z,60.78
2018-11-21T21:22:50.292Z,61.70
2018-11-21T21:25:20.477Z,52.40
2018-11-21T21:27:49.085Z,56.67
2018-11-21T21:30:19.579Z,60.45
2018-11-21T21:32:48.467Z,50.07
2018-11-21T21:35:18.413Z,60.84
2018-11-21T21:37:48.755Z,60.50
2018-11-21T21:40:20.325Z,60.80
2018-11-21T21:42:47.605Z,53.93
2018-11-21T21:45:18.405Z,60.00
2018-11-21T21:47:46.847Z,68.83
2018-11-21T21:50:17.480Z,62.38
2018-11-21T21:52:46.066Z,56.27
2018-11-21T21:55:16.700Z,59.60
2018-11-21T21:57:45.201Z,64.53
2018-11-21T22:00:22.355Z,61.00
2018-11-21T22:02:51.660Z,60.20
2018-11-21T22:05:20.652Z,68.33
2018-11-21T22:07:49.212Z,57.13
2018-11-21T22:10:18.602Z,58.92
2018-11-21T22:12:47.428Z,56.83
2018-11-21T22:15:22.113Z,52.95
2018-11-21T22:17:50.821Z,50.67
2018-11-21T22:20:20.509Z,51.80
2018-11-21T22:22:49.286Z,59.70
2018-11-21T22:25:17.724Z,53.80
2018-11-21T22:27:47.688Z,59.33
2018-11-21T22:30:17.339Z,53.23
2018-11-21T22:32:47.109Z,52.97
2018-11-21T22:35:18.850Z,52.52
2018-11-21T22:37:51.127Z,51.90
2018-11-21T22:40:17.545Z,50.67
2018-11-21T22:42:46.268Z,49.10
2018-11-21T22:45:17.791Z,65.22
2018-11-21T22:47:46.634Z,54.40
2018-11-21T22:50:18.673Z,51.36
2018-11-21T22:52:47.562Z,57.57
2018-11-21T22:55:18.150Z,57.08
2018-11-21T22:57:47.184Z,57.80
2018-11-21T23:00:40.005Z,51.28
2018-11-21T23:03:08.688Z,45.87
2018-11-21T23:05:37.675Z,45.57
2018-11-21T23:08:06.365Z,48.00
2018-11-21T23:10:34.793Z,43.90
2018-11-21T23:13:03.260Z,51.33
2018-11-21T23:15:32.039Z,41.80
2018-11-21T23:18:00.421Z,46.98
2018-11-21T23:20:28.896Z,49.85
2018-11-21T23:22:57.317Z,43.00
2018-11-21T23:25:25.734Z,40.28
2018-11-21T23:27:54.547Z,38.53
2018-11-21T23:30:23.027Z,39.17
2018-11-21T23:32:51.463Z,39.50
2018-11-21T23:35:20.798Z,40.27
2018-11-21T23:37:49.217Z,40.03
2018-11-21T23:40:18.004Z,42.75
2018-11-21T23:42:48.558Z,43.48
2018-11-21T23:45:17.764Z,43.90
2018-11-21T23:47:46.434Z,46.03
2018-11-21T23:50:20.773Z,41.65
2018-11-21T23:52:49.211Z,38.37
2018-11-21T23:55:19.153Z,39.67
2018-11-21T23:57:47.622Z,44.73
